createdAt,value
2023-11-12T00:00:40.793Z,100190.50
2023-11-12T00:03:07.841Z,100183.56
2023-11-12T00:05:35.339Z,100190.50
2023-11-12T00:08:02.552Z,100189.63
2023-11-12T00:10:29.571Z,100187.91
2023-11-12T00:12:56.569Z,100187.03
2023-11-12T00:15:23.505Z,100189.66
2023-11-12T00:17:50.547Z,100195.72
2023-11-12T00:20:18.973Z,100189.63
2023-11-12T00:22:46.208Z,100192.25
2023-11-12T00:25:14.822Z,100192.25
2023-11-12T00:27:42.075Z,100190.50
2023-11-12T00:30:10.443Z,100192.25
2023-11-12T00:32:38.251Z,100189.63
2023-11-12T00:35:06.621Z,100184.44
2023-11-12T00:37:34.156Z,100187.03
2023-11-12T00:40:01.319Z,100182.72
2023-11-12T00:42:28.573Z,100184.44
2023-11-12T00:44:55.617Z,100189.66
2023-11-12T00:47:22.697Z,100181.00
2023-11-12T00:49:49.826Z,100179.25
2023-11-12T00:52:17.634Z,100179.25
2023-11-12T00:54:45.356Z,100186.19
2023-11-12T00:57:12.367Z,100187.06
2023-11-12T00:59:39.304Z,100185.31
2023-11-12T01:02:06.490Z,100187.94
2023-11-12T01:04:33.531Z,100179.28
2023-11-12T01:07:00.452Z,100191.41
2023-11-12T01:09:29.471Z,100182.78
2023-11-12T01:11:56.447Z,100184.47
2023-11-12T01:14:23.935Z,100185.38
2023-11-12T01:16:51.050Z,100177.56
2023-11-12T01:19:18.044Z,100188.84
2023-11-12T01:21:44.997Z,100182.75
2023-11-12T01:24:12.043Z,100187.97
2023-11-12T01:26:39.652Z,100181.03
2023-11-12T01:29:06.678Z,100179.31
2023-11-12T01:31:33.643Z,100181.03
2023-11-12T01:34:01.349Z,100186.28
2023-11-12T01:36:28.455Z,100187.16
2023-11-12T01:38:55.459Z,100191.47
2023-11-12T01:41:23.125Z,100193.22
2023-11-12T01:43:50.076Z,100186.28
2023-11-12T01:46:19.992Z,100189.75
2023-11-12T01:48:47.852Z,100198.44
2023-11-12T01:51:15.201Z,100196.72
2023-11-12T01:53:42.663Z,100194.97
2023-11-12T01:56:13.025Z,100194.97
2023-11-12T01:58:41.958Z,100187.19
2023-11-12T02:01:09.343Z,100195.81
2023-11-12T02:03:38.068Z,100199.28
2023-11-12T02:06:06.551Z,100206.25
2023-11-12T02:08:36.272Z,100190.66
2023-11-12T02:11:08.946Z,100207.97
2023-11-12T02:13:38.409Z,100199.28
2023-11-12T02:16:05.857Z,100203.63
2023-11-12T02:18:32.854Z,100201.03
2023-11-12T02:21:00.564Z,100197.53
2023-11-12T02:23:28.168Z,100200.13
2023-11-12T02:25:55.117Z,100204.47
2023-11-12T02:28:22.161Z,100201.00
2023-11-12T02:30:49.281Z,100200.97
2023-11-12T02:33:16.514Z,100195.78
2023-11-12T02:35:46.915Z,100207.06
2023-11-12T02:38:13.965Z,100201.88
2023-11-12T02:40:40.936Z,100206.19
2023-11-12T02:43:08.009Z,100197.53
2023-11-12T02:45:35.008Z,100206.19
2023-11-12T02:48:03.088Z,100207.94
2023-11-12T02:50:34.310Z,100202.72
2023-11-12T02:53:04.518Z,100205.34
2023-11-12T02:55:32.682Z,100205.31
2023-11-12T02:58:01.484Z,100204.47
2023-11-12T03:00:29.529Z,100204.44
2023-11-12T03:03:02.410Z,100208.78
2023-11-12T03:05:32.702Z,100211.38
2023-11-12T03:07:59.875Z,100200.13
2023-11-12T03:10:26.982Z,100213.94
2023-11-12T03:12:55.121Z,100207.91
2023-11-12T03:15:22.462Z,100213.94
2023-11-12T03:17:52.148Z,100211.34
2023-11-12T03:20:19.292Z,100213.09
2023-11-12T03:22:47.068Z,100218.31
2023-11-12T03:25:14.039Z,100225.25
2023-11-12T03:27:41.168Z,100224.38
2023-11-12T03:30:10.562Z,100222.66
2023-11-12T03:32:37.894Z,100218.31
2023-11-12T03:35:06.078Z,100220.91
2023-11-12T03:37:33.516Z,100209.66
2023-11-12T03:40:00.588Z,100217.47
2023-11-12T03:42:28.094Z,100207.94
2023-11-12T03:44:56.945Z,100217.44
2023-11-12T03:47:25.515Z,100218.34
2023-11-12T03:49:52.493Z,100219.19
2023-11-12T03:52:19.434Z,100210.53
2023-11-12T03:54:46.536Z,100211.38
2023-11-12T03:57:14.550Z,100209.66
2023-11-12T03:59:41.661Z,100210.53
2023-11-12T04:02:08.673Z,100207.06
2023-11-12T04:04:36.267Z,100206.22
2023-11-12T04:07:03.962Z,100205.34
2023-11-12T04:09:31.757Z,100206.19
2023-11-12T04:11:58.740Z,100204.47
2023-11-12T04:14:25.699Z,100209.69
2023-11-12T04:16:52.653Z,100219.22
2023-11-12T04:19:19.583Z,100223.56
2023-11-12T04:21:48.346Z,100216.63
2023-11-12T04:24:16.550Z,100223.56
2023-11-12T04:26:44.081Z,100221.81
2023-11-12T04:29:11.722Z,100220.09
2023-11-12T04:31:40.292Z,100225.28
2023-11-12T04:34:08.254Z,100225.31
2023-11-12T04:36:37.825Z,100222.72
2023-11-12T04:39:05.659Z,100227.06
2023-11-12T04:41:32.808Z,100228.75
2023-11-12T04:44:00.418Z,100226.19
2023-11-12T04:46:28.920Z,100238.31
2023-11-12T04:48:56.200Z,100228.78
2023-11-12T04:51:23.486Z,100238.31
2023-11-12T04:53:50.493Z,100239.19
2023-11-12T04:56:17.441Z,100240.06
2023-11-12T04:58:44.415Z,100244.41
2023-11-12T05:01:11.342Z,100240.94
2023-11-12T05:03:38.352Z,100246.13
2023-11-12T05:06:05.659Z,100244.41
2023-11-12T05:08:32.835Z,100245.25
2023-11-12T05:10:59.990Z,100250.47
2023-11-12T05:13:27.230Z,100250.44
2023-11-12T05:15:54.445Z,100247.84
2023-11-12T05:18:22.556Z,100246.13
2023-11-12T05:20:49.664Z,100245.25
2023-11-12T05:23:16.652Z,100252.19
2023-11-12T05:25:43.586Z,100249.59
2023-11-12T05:28:10.526Z,100248.75
2023-11-12T05:30:37.699Z,100259.13
2023-11-12T05:33:04.688Z,100265.19
2023-11-12T05:35:31.892Z,100262.59
2023-11-12T05:37:58.806Z,100264.31
2023-11-12T05:40:25.795Z,100267.81
2023-11-12T05:42:52.770Z,100279.06
2023-11-12T05:45:20.313Z,100281.69
2023-11-12T05:47:47.495Z,100281.69
2023-11-12T05:50:15.795Z,100284.28
2023-11-12T05:52:43.540Z,100282.56
2023-11-12T05:55:11.853Z,100294.69
2023-11-12T05:57:38.839Z,100291.22
2023-11-12T06:00:10.383Z,100288.63
2023-11-12T06:02:40.617Z,100294.72
2023-11-12T06:05:08.183Z,100299.00
2023-11-12T06:07:35.193Z,100301.63
2023-11-12T06:10:02.657Z,100302.50
2023-11-12T06:12:29.681Z,100305.94
2023-11-12T06:14:56.822Z,100305.09
2023-11-12T06:17:25.906Z,100312.03
2023-11-12T06:19:53.463Z,100304.25
2023-11-12T06:22:21.276Z,100291.22
2023-11-12T06:24:48.277Z,100308.56
2023-11-12T06:27:15.244Z,100293.84
2023-11-12T06:29:42.180Z,100301.63
2023-11-12T06:32:09.130Z,100296.41
2023-11-12T06:34:36.296Z,100305.97
2023-11-12T06:37:04.295Z,100304.25
2023-11-12T06:39:32.139Z,100302.50
2023-11-12T06:41:59.293Z,100305.09
2023-11-12T06:44:26.264Z,100311.16
2023-11-12T06:46:53.255Z,100309.44
2023-11-12T06:49:20.221Z,100311.19
2023-11-12T06:51:47.218Z,100315.50
2023-11-12T06:54:14.273Z,100316.38
2023-11-12T06:56:41.289Z,100314.66
2023-11-12T06:59:08.277Z,100316.38
2023-11-12T07:01:35.294Z,100324.16
2023-11-12T07:04:02.407Z,100322.44
2023-11-12T07:06:30.100Z,100327.66
2023-11-12T07:08:57.066Z,100324.19
2023-11-12T07:11:23.974Z,100326.78
2023-11-12T07:13:51.258Z,100331.13
2023-11-12T07:16:19.265Z,100338.06
2023-11-12T07:18:53.764Z,100325.06
2023-11-12T07:21:29.846Z,100328.50
2023-11-12T07:23:57.285Z,100333.72
2023-11-12T07:26:25.767Z,100344.97
2023-11-12T07:28:53.827Z,100338.03
2023-11-12T07:31:24.187Z,100346.72
2023-11-12T07:33:52.127Z,100349.31
2023-11-12T07:36:19.843Z,100351.91
2023-11-12T07:38:46.936Z,100359.72
2023-11-12T07:41:13.865Z,100351.06
2023-11-12T07:43:41.124Z,100365.78
2023-11-12T07:46:08.316Z,100351.94
2023-11-12T07:48:36.814Z,100360.59
2023-11-12T07:51:03.964Z,100354.53
2023-11-12T07:53:30.881Z,100362.31
2023-11-12T07:55:57.898Z,100361.44
2023-11-12T07:58:24.967Z,100361.44
2023-11-12T08:00:52.200Z,100361.47
2023-11-12T08:03:20.488Z,100366.66
2023-11-12T08:05:48.343Z,100361.44
2023-11-12T08:08:15.288Z,100363.22
2023-11-12T08:10:42.255Z,100360.59
2023-11-12T08:13:09.199Z,100363.22
2023-11-12T08:15:36.405Z,100371.00
2023-11-12T08:18:06.412Z,100370.13
2023-11-12T08:20:35.604Z,100358.84
2023-11-12T08:23:03.220Z,100373.56
2023-11-12T08:25:30.188Z,100359.72
2023-11-12T08:27:58.390Z,100368.41
2023-11-12T08:30:25.669Z,100358.00
2023-11-12T08:32:53.188Z,100361.44
2023-11-12T08:35:20.149Z,100360.59
2023-11-12T08:37:47.626Z,100364.06
2023-11-12T08:40:16.608Z,100358.84
2023-11-12T08:42:44.855Z,100370.13
2023-11-12T08:45:11.840Z,100370.97
2023-11-12T08:47:38.801Z,100367.53
2023-11-12T08:50:06.278Z,100371.00
2023-11-12T08:52:33.240Z,100365.81
2023-11-12T08:55:00.425Z,100371.88
2023-11-12T08:57:27.449Z,100371.03
2023-11-12T08:59:54.793Z,100390.94
2023-11-12T09:02:21.773Z,100397.03
2023-11-12T09:04:48.729Z,100390.09
2023-11-12T09:07:15.691Z,100386.63
2023-11-12T09:09:42.672Z,100384.00
2023-11-12T09:12:09.684Z,100387.50
2023-11-12T09:14:36.903Z,100377.94
2023-11-12T09:17:04.119Z,100387.47
2023-11-12T09:19:31.112Z,100383.13
2023-11-12T09:21:58.124Z,100378.78
2023-11-12T09:24:25.252Z,100378.78
2023-11-12T09:26:52.326Z,100377.06
2023-11-12T09:29:19.926Z,100379.66
2023-11-12T09:31:46.865Z,100383.13
2023-11-12T09:34:14.602Z,100382.25
2023-11-12T09:36:41.544Z,100386.63
2023-11-12T09:39:08.530Z,100382.28
2023-11-12T09:41:40.163Z,100382.28
2023-11-12T09:44:08.944Z,100380.56
2023-11-12T09:46:36.788Z,100379.69
2023-11-12T09:49:05.341Z,100374.47
2023-11-12T09:51:34.864Z,100375.34
2023-11-12T09:54:02.208Z,100374.47
2023-11-12T09:56:29.230Z,100377.09
2023-11-12T09:58:56.183Z,100377.09
2023-11-12T10:01:24.042Z,100376.22
2023-11-12T10:03:52.440Z,100374.47
2023-11-12T10:06:22.167Z,100384.91
2023-11-12T10:08:51.319Z,100384.03
2023-11-12T10:11:25.605Z,100374.50
2023-11-12T10:13:53.124Z,100384.88
2023-11-12T10:16:33.700Z,100380.56
2023-11-12T10:19:16.250Z,100385.78
2023-11-12T10:21:58.049Z,100387.50
2023-11-12T10:24:30.718Z,100389.22
2023-11-12T10:27:01.971Z,100379.69
2023-11-12T10:29:28.902Z,100377.09
2023-11-12T10:31:56.646Z,100371.00
2023-11-12T10:34:25.873Z,100372.72
2023-11-12T10:37:09.243Z,100364.03
2023-11-12T10:39:42.656Z,100370.09
2023-11-12T10:42:25.803Z,100364.91
2023-11-12T10:44:57.291Z,100370.09
2023-11-12T10:47:31.231Z,100378.81
2023-11-12T10:49:59.094Z,100372.69
2023-11-12T10:52:27.947Z,100357.06
2023-11-12T10:54:59.399Z,100369.25
2023-11-12T10:57:27.372Z,100361.41
2023-11-12T10:59:56.007Z,100362.28
2023-11-12T11:02:29.830Z,100358.78
2023-11-12T11:04:58.151Z,100366.59
2023-11-12T11:07:25.503Z,100371.78
2023-11-12T11:09:52.895Z,100370.94
2023-11-12T11:12:20.557Z,100376.13
2023-11-12T11:14:47.840Z,100372.66
2023-11-12T11:17:39.661Z,100378.75
2023-11-12T11:20:07.428Z,100373.53
2023-11-12T11:22:34.389Z,100376.16
2023-11-12T11:25:23.407Z,100376.16
2023-11-12T11:27:51.749Z,100376.13
2023-11-12T11:30:18.874Z,100370.97
2023-11-12T11:33:03.753Z,100377.91
2023-11-12T11:35:32.826Z,100371.81
2023-11-12T11:38:12.846Z,100376.19
2023-11-12T11:40:43.651Z,100375.31
2023-11-12T11:43:23.086Z,100366.59
2023-11-12T11:46:09.714Z,100370.06
2023-11-12T11:48:48.964Z,100363.09
2023-11-12T11:51:36.243Z,100373.50
2023-11-12T11:54:07.419Z,100379.56
2023-11-12T11:56:35.277Z,100366.50
2023-11-12T11:59:02.941Z,100368.22
2023-11-12T12:01:29.920Z,100362.97
2023-11-12T12:04:06.458Z,100363.84
2023-11-12T12:06:34.545Z,100374.22
2023-11-12T12:09:01.563Z,100375.94
2023-11-12T12:11:28.589Z,100374.19
2023-11-12T12:14:01.226Z,100380.25
2023-11-12T12:16:30.334Z,100386.28
2023-11-12T12:18:57.684Z,100374.97
2023-11-12T12:21:25.711Z,100377.53
2023-11-12T12:23:53.155Z,100362.75
2023-11-12T12:26:25.440Z,100374.00
2023-11-12T12:28:53.574Z,100380.03
2023-11-12T12:31:21.107Z,100373.97
2023-11-12T12:34:09.376Z,100384.34
2023-11-12T12:36:37.510Z,100385.22
2023-11-12T12:39:10.922Z,100386.06
2023-11-12T12:41:41.027Z,100383.47
2023-11-12T12:44:23.884Z,100382.56
2023-11-12T12:46:55.421Z,100379.06
2023-11-12T12:49:40.943Z,100376.44
2023-11-12T12:52:24.631Z,100376.47
2023-11-12T12:54:54.146Z,100378.19
2023-11-12T12:57:25.121Z,100371.19
2023-11-12T12:59:52.248Z,100376.41
2023-11-12T13:02:19.257Z,100369.44
2023-11-12T13:04:48.457Z,100372.03
2023-11-12T13:07:16.353Z,100384.19
2023-11-12T13:09:45.659Z,100372.91
2023-11-12T13:12:13.691Z,100374.63
2023-11-12T13:14:42.073Z,100377.22
2023-11-12T13:17:09.649Z,100371.13
2023-11-12T13:19:37.064Z,100373.72
2023-11-12T13:22:04.747Z,100371.16
2023-11-12T13:24:35.485Z,100370.31
2023-11-12T13:27:03.930Z,100383.34
2023-11-12T13:29:30.878Z,100373.81
2023-11-12T13:31:57.971Z,100384.22
2023-11-12T13:34:25.154Z,100387.69
2023-11-12T13:36:52.548Z,100392.94
2023-11-12T13:39:19.705Z,100382.53
2023-11-12T13:41:48.147Z,100386.94
2023-11-12T13:44:15.699Z,100375.59
2023-11-12T13:46:42.770Z,100386.06
2023-11-12T13:49:10.452Z,100389.53
2023-11-12T13:51:40.851Z,100385.19
2023-11-12T13:54:11.542Z,100385.19
2023-11-12T13:56:40.178Z,100381.72
2023-11-12T13:59:07.141Z,100387.78
2023-11-12T14:01:34.226Z,100385.19
2023-11-12T14:04:01.978Z,100382.59
2023-11-12T14:06:29.107Z,100390.41
2023-11-12T14:08:57.296Z,100393.91
2023-11-12T14:11:24.259Z,100380.03
2023-11-12T14:13:52.017Z,100395.66
2023-11-12T14:16:19.150Z,100398.28
2023-11-12T14:18:46.595Z,100405.28
2023-11-12T14:21:13.829Z,100407.88
2023-11-12T14:23:41.422Z,100414.00
2023-11-12T14:26:09.672Z,100412.28
2023-11-12T14:28:37.029Z,100410.56
2023-11-12T14:31:08.347Z,100415.78
2023-11-12T14:33:35.867Z,100422.75
2023-11-12T14:36:03.063Z,100421.03
2023-11-12T14:38:32.816Z,100426.25
2023-11-12T14:40:59.752Z,100421.03
2023-11-12T14:43:26.689Z,100421.03
2023-11-12T14:45:53.763Z,100423.63
2023-11-12T14:48:20.961Z,100421.88
2023-11-12T14:50:49.952Z,100423.63
2023-11-12T14:53:17.046Z,100426.22
2023-11-12T14:55:43.974Z,100419.31
2023-11-12T14:58:11.107Z,100425.38
2023-11-12T15:00:41.059Z,100424.50
2023-11-12T15:03:08.171Z,100417.56
2023-11-12T15:05:35.714Z,100428.03
2023-11-12T15:08:02.840Z,100420.22
2023-11-12T15:10:30.301Z,100418.53
2023-11-12T15:12:58.519Z,100422.84
2023-11-12T15:15:25.782Z,100418.53
2023-11-12T15:17:53.353Z,100422.88
2023-11-12T15:20:21.274Z,100421.13
2023-11-12T15:22:48.322Z,100423.75
2023-11-12T15:25:16.275Z,100422.00
2023-11-12T15:27:48.126Z,100424.66
2023-11-12T15:30:18.106Z,100425.50
2023-11-12T15:32:46.307Z,100418.56
2023-11-12T15:35:15.092Z,100422.91
2023-11-12T15:37:42.698Z,100440.28
2023-11-12T15:40:20.991Z,100434.19
2023-11-12T15:42:51.642Z,100429.88
2023-11-12T15:45:19.326Z,100435.09
2023-11-12T15:47:48.176Z,100429.03
2023-11-12T15:50:16.669Z,100433.38
2023-11-12T15:52:44.751Z,100435.13
2023-11-12T15:55:16.992Z,100432.50
2023-11-12T15:57:44.210Z,100435.13
2023-11-12T16:00:15.938Z,100429.91
2023-11-12T16:02:45.515Z,100430.78
2023-11-12T16:05:13.815Z,100432.53
2023-11-12T16:07:42.217Z,100441.25
2023-11-12T16:10:11.965Z,100442.09
2023-11-12T16:12:39.240Z,100442.09
2023-11-12T16:15:12.101Z,100448.19
2023-11-12T16:17:40.109Z,100445.59
2023-11-12T16:20:09.701Z,100456.88
2023-11-12T16:22:38.882Z,100444.72
2023-11-12T16:25:09.478Z,100454.28
2023-11-12T16:27:36.856Z,100446.47
2023-11-12T16:30:04.855Z,100464.72
2023-11-12T16:32:32.802Z,100464.69
2023-11-12T16:35:00.506Z,100458.63
2023-11-12T16:37:27.481Z,100459.47
2023-11-12T16:39:54.509Z,100465.56
2023-11-12T16:42:25.185Z,100469.91
2023-11-12T16:44:52.519Z,100470.78
2023-11-12T16:47:24.055Z,100468.16
2023-11-12T16:49:51.974Z,100469.94
2023-11-12T16:52:18.980Z,100474.25
2023-11-12T16:54:46.582Z,100480.31
2023-11-12T16:57:13.624Z,100481.19
2023-11-12T16:59:41.391Z,100482.06
2023-11-12T17:02:14.878Z,100484.69
2023-11-12T17:04:42.347Z,100489.91
2023-11-12T17:07:09.827Z,100485.56
2023-11-12T17:09:36.866Z,100496.84
2023-11-12T17:12:04.429Z,100496.91
2023-11-12T17:14:31.782Z,100482.09
2023-11-12T17:16:58.812Z,100505.56
2023-11-12T17:19:25.774Z,100499.47
2023-11-12T17:21:53.529Z,100509.91
2023-11-12T17:24:22.607Z,100504.66
2023-11-12T17:26:51.534Z,100494.25
2023-11-12T17:29:19.210Z,100507.28
2023-11-12T17:31:46.161Z,100512.50
2023-11-12T17:34:14.942Z,100506.41
2023-11-12T17:36:42.021Z,100507.28
2023-11-12T17:39:10.830Z,100509.00
2023-11-12T17:41:38.018Z,100496.84
2023-11-12T17:44:05.459Z,100506.41
2023-11-12T17:46:32.857Z,100502.91
2023-11-12T17:49:01.935Z,100512.47
2023-11-12T17:51:29.139Z,100525.47
2023-11-12T17:53:56.076Z,100519.41
2023-11-12T17:56:23.325Z,100515.94
2023-11-12T17:58:51.086Z,100509.84
2023-11-12T18:01:19.587Z,100525.47
2023-11-12T18:03:49.843Z,100527.22
2023-11-12T18:06:20.090Z,100530.66
2023-11-12T18:08:47.071Z,100508.09
2023-11-12T18:11:17.185Z,100523.72
2023-11-12T18:13:45.382Z,100522.00
2023-11-12T18:16:12.689Z,100530.66
2023-11-12T18:18:40.809Z,100516.75
2023-11-12T18:21:08.064Z,100526.31
2023-11-12T18:23:35.572Z,100526.28
2023-11-12T18:26:02.889Z,100521.94
2023-11-12T18:28:30.000Z,100531.47
2023-11-12T18:30:57.397Z,100531.44
2023-11-12T18:33:24.345Z,100529.72
2023-11-12T18:35:51.249Z,100530.56
2023-11-12T18:38:19.178Z,100523.63
2023-11-12T18:40:48.435Z,100523.59
2023-11-12T18:43:16.796Z,100527.94
2023-11-12T18:45:43.946Z,100529.66
2023-11-12T18:48:11.642Z,100534.88
2023-11-12T18:50:38.876Z,100534.03
2023-11-12T18:53:06.027Z,100533.16
2023-11-12T18:55:33.058Z,100542.69
2023-11-12T18:58:00.466Z,100540.06
2023-11-12T19:00:27.412Z,100544.44
2023-11-12T19:02:54.826Z,100542.69
2023-11-12T19:05:22.677Z,100547.03
2023-11-12T19:07:49.872Z,100544.44
2023-11-12T19:10:17.780Z,100545.31
2023-11-12T19:12:45.544Z,100548.75
2023-11-12T19:15:14.480Z,100540.97
2023-11-12T19:17:44.494Z,100547.03
2023-11-12T19:20:16.088Z,100538.38
2023-11-12T19:22:44.063Z,100545.31
2023-11-12T19:25:17.368Z,100542.72
2023-11-12T19:27:45.088Z,100548.75
2023-11-12T19:30:15.571Z,100560.06
2023-11-12T19:32:44.200Z,100547.03
2023-11-12T19:35:12.504Z,100537.47
2023-11-12T19:37:39.761Z,100519.25
2023-11-12T19:40:11.130Z,100546.16
2023-11-12T19:42:40.022Z,100550.53
2023-11-12T19:45:07.443Z,100548.75
2023-11-12T19:47:34.606Z,100553.97
2023-11-12T19:50:01.783Z,100547.88
2023-11-12T19:52:29.585Z,100555.69
2023-11-12T19:54:56.751Z,100558.28
2023-11-12T19:57:24.127Z,100553.09
2023-11-12T19:59:51.046Z,100563.50
2023-11-12T20:02:18.188Z,100561.75
2023-11-12T20:04:45.199Z,100560.88
2023-11-12T20:07:12.600Z,100564.34
2023-11-12T20:09:40.381Z,100553.94
2023-11-12T20:12:07.814Z,100559.13
2023-11-12T20:14:37.806Z,100566.94
2023-11-12T20:17:05.038Z,100562.63
2023-11-12T20:19:32.048Z,100564.34
2023-11-12T20:21:59.139Z,100564.34
2023-11-12T20:24:27.078Z,100557.41
2023-11-12T20:26:55.430Z,100562.59
2023-11-12T20:29:22.531Z,100564.34
2023-11-12T20:31:55.463Z,100570.41
2023-11-12T20:34:23.657Z,100567.81
2023-11-12T20:36:51.926Z,100575.59
2023-11-12T20:39:21.310Z,100573.91
2023-11-12T20:41:50.978Z,100576.50
2023-11-12T20:44:18.107Z,100573.88
2023-11-12T20:46:46.178Z,100573.03
2023-11-12T20:49:18.381Z,100576.47
2023-11-12T20:51:52.401Z,100577.31
2023-11-12T20:54:19.415Z,100574.69
2023-11-12T20:56:46.494Z,100584.19
2023-11-12T20:59:14.011Z,100580.72
2023-11-12T21:01:41.347Z,100576.38
2023-11-12T21:04:12.485Z,100581.59
2023-11-12T21:06:41.850Z,100556.41
2023-11-12T21:09:09.829Z,100577.22
2023-11-12T21:11:41.179Z,100573.75
2023-11-12T21:14:12.760Z,100570.25
2023-11-12T21:16:41.269Z,100573.75
2023-11-12T21:19:09.944Z,100579.78
2023-11-12T21:21:38.941Z,100585.00
2023-11-12T21:24:07.189Z,100578.91
2023-11-12T21:26:34.901Z,100577.16
2023-11-12T21:29:01.892Z,100583.25
2023-11-12T21:31:28.872Z,100581.53
2023-11-12T21:33:55.899Z,100579.78
2023-11-12T21:36:23.219Z,100577.22
2023-11-12T21:38:50.458Z,100574.59
2023-11-12T21:41:18.797Z,100565.06
2023-11-12T21:43:46.002Z,100572.88
2023-11-12T21:46:16.410Z,100572.00
2023-11-12T21:48:43.912Z,100570.28
2023-11-12T21:51:10.993Z,100573.75
2023-11-12T21:53:38.109Z,100574.66
2023-11-12T21:56:05.809Z,100575.53
2023-11-12T21:58:33.519Z,100581.59
2023-11-12T22:01:01.243Z,100585.06
2023-11-12T22:03:28.673Z,100584.19
2023-11-12T22:05:56.123Z,100582.50
2023-11-12T22:08:23.748Z,100588.56
2023-11-12T22:10:51.129Z,100582.50
2023-11-12T22:13:21.795Z,100597.28
2023-11-12T22:15:49.172Z,100589.47
2023-11-12T22:18:16.366Z,100594.66
2023-11-12T22:20:43.343Z,100589.47
2023-11-12T22:23:11.955Z,100590.34
2023-11-12T22:25:39.822Z,100598.97
2023-11-12T22:28:08.161Z,100599.84
2023-11-12T22:30:36.935Z,100596.38
2023-11-12T22:33:03.951Z,100598.13
2023-11-12T22:35:30.927Z,100597.22
2023-11-12T22:37:58.519Z,100589.44
2023-11-12T22:40:25.774Z,100599.88
2023-11-12T22:42:53.394Z,100592.94
2023-11-12T22:45:20.605Z,100600.75
2023-11-12T22:47:48.092Z,100602.47
2023-11-12T22:50:18.229Z,100599.84
2023-11-12T22:52:45.298Z,100604.19
2023-11-12T22:55:12.698Z,100608.53
2023-11-12T22:57:41.126Z,100609.41
2023-11-12T23:02:57.153Z,100616.34
2023-11-12T23:05:24.254Z,100619.81
2023-11-12T23:07:51.206Z,100618.94
2023-11-12T23:10:18.151Z,100619.78
2023-11-12T23:12:45.083Z,100626.72
2023-11-12T23:15:12.669Z,100622.41
2023-11-12T23:17:40.196Z,100630.19
2023-11-12T23:20:10.158Z,100626.72
2023-11-12T23:22:37.439Z,100634.53
2023-11-12T23:25:05.528Z,100626.72
2023-11-12T23:27:33.246Z,100638.84
2023-11-12T23:30:00.239Z,100627.56
2023-11-12T23:32:27.402Z,100634.53
2023-11-12T23:34:55.724Z,100624.06
2023-11-12T23:37:22.815Z,100620.59
2023-11-12T23:39:49.794Z,100630.16
2023-11-12T23:42:18.162Z,100628.44
2023-11-12T23:44:45.092Z,100621.53
2023-11-12T23:47:12.061Z,100623.25
2023-11-12T23:49:39.009Z,100629.31
2023-11-12T23:52:06.633Z,100632.78
2023-11-12T23:54:33.551Z,100630.19
2023-11-12T23:57:00.938Z,100631.94
2023-11-12T23:59:27.869Z,100630.19
